aviador You're here:

KFOK Decoded Metar

WEST HAMPTON BEACH in NY, USA
Report Time2017-08-18 17:53:00
UTC Time2017-08-18 18:19:12
Flight Rules ifr IFR
Wind190° at 11 Gusting to 20 kt
W.Decomp.*RWY 19: 10.7 kt HW 2.5 kt RCW
RWY 24: 8.8 kt HW 6.6 kt LCW
RWY 15: 6.6 kt HW 8.8 kt RCW
W.Rank190° ranks 13
Current wind is above 190° avg. (7.1)
Visibility9999 m
Phenomena:N/A
Clouds:Broken 006 Hf
Overcast 010 Hf
Expected CloudBase > 1,200 ft AGL from Temp-Dew spread
Ceiling600 ft
Temp26°C (ISA +11)
Dew Point23°C (84% RH)
QNH1012 hPa
Density Alt1,808 ft
Elevation108 ft
Report Wrong Elevation
Raw Report
METAR KFOK 181753Z 19011G20KT 9SM BKN006 OVC010 26/23 A2989 RMK AO2
SLP120 60020 T02560233 10256 20233 56015=

Extra information for KFOK:More info

Metar Taf Metar & Taf Last 4 Metars F.Rules Stats Wind Profile Meteogram Temp Stats Airport Information Weather charts Add Link Nearby VenuesMetar ALERT Operation Metar Decoded Social comments

AIRNAV info for KFOK